Time;durP1;ratioP1;P1;durP2;ratioP2;P2;SDS_P1;SDS_P2;PMS_P1;PMS_P2;Temp;Humidity;BMP_temperature;BMP_pressure;BME280_temperature;BME280_humidity;BME280_pressure;Samples;Min_cycle;Max_cycle;Signal;HPM_P1;HPM_P2
2022/03/28 00:01:12;;;;;;;4.30;0.90;;;;;;;-1.69;46.00;100109.66;25127;1312;3028174;-64
2022/03/28 00:03:42;;;;;;;1.80;1.00;;;;;;;-1.68;45.74;100104.17;25151;1312;3028101;-66
2022/03/28 00:06:14;;;;;;;2.90;1.20;;;;;;;-1.66;45.75;100108.48;25125;1313;3026235;-64
2022/03/28 00:08:44;;;;;;;3.80;1.20;;;;;;;-1.65;45.34;100108.12;25131;1312;3026701;-66
2022/03/28 00:11:14;;;;;;;2.20;1.10;;;;;;;-1.67;45.64;100096.95;25152;1313;3027202;-67
2022/03/28 00:13:45;;;;;;;2.00;1.10;;;;;;;-1.74;45.44;100096.95;25136;1315;3026256;-63
2022/03/28 00:16:14;;;;;;;5.40;1.50;;;;;;;-1.72;45.65;100093.17;25142;1312;3029840;-65
2022/03/28 00:19:03;;;;;;;3.70;1.10;;;;;;;-1.69;45.55;100099.35;25113;1312;3054422;-65
2022/03/28 00:21:33;;;;;;;6.80;1.20;;;;;;;-1.65;45.36;100101.59;25109;1312;3025902;-66
2022/03/28 00:24:02;;;;;;;4.60;0.90;;;;;;;-1.75;45.23;100102.63;25125;1312;3027148;-65
2022/03/28 00:26:31;;;;;;;3.80;1.30;;;;;;;-1.71;45.14;100109.14;25128;1315;3054682;-67
2022/03/28 00:29:00;;;;;;;5.20;1.20;;;;;;;-1.74;45.41;100107.44;25179;1312;3027376;-64
2022/03/28 00:31:30;;;;;;;3.20;1.40;;;;;;;-1.76;45.18;100108.64;25096;1313;3026963;-67
2022/03/28 00:33:59;;;;;;;2.00;1.10;;;;;;;-1.65;45.21;100113.27;25153;1315;3051087;-63
2022/03/28 00:36:27;;;;;;;2.60;1.00;;;;;;;-1.67;44.57;100104.69;25144;1313;3026930;-65
2022/03/28 00:38:57;;;;;;;4.40;1.70;;;;;;;-1.73;44.68;100107.09;25088;1312;3051035;-65
2022/03/28 00:41:27;;;;;;;7.10;1.20;;;;;;;-1.71;44.72;100110.52;25038;1313;3029443;-62
2022/03/28 00:43:57;;;;;;;7.30;1.40;;;;;;;-1.72;44.73;100107.61;25123;1312;3027082;-67
2022/03/28 00:46:26;;;;;;;2.50;1.60;;;;;;;-1.65;44.50;100106.41;25124;1312;3048594;-64
2022/03/28 00:49:00;;;;;;;4.40;1.50;;;;;;;-1.62;44.33;100107.42;25159;1312;3052410;-66
2022/03/28 00:51:29;;;;;;;3.20;1.20;;;;;;;-1.67;44.49;100110.88;25167;1313;3026639;-65
2022/03/28 00:53:59;;;;;;;3.30;1.60;;;;;;;-1.66;44.46;100104.17;25101;1312;3051686;-65
2022/03/28 00:56:28;;;;;;;3.70;1.10;;;;;;;-1.61;44.24;100108.11;25186;1312;3026393;-63
2022/03/28 00:58:58;;;;;;;2.70;1.20;;;;;;;-1.64;44.40;100112.42;25401;1312;3026352;-64
2022/03/28 01:01:28;;;;;;;4.80;1.00;;;;;;;-1.65;44.33;100111.03;25660;1312;3048835;-63
2022/03/28 01:03:57;;;;;;;2.50;1.20;;;;;;;-1.59;44.04;100108.11;25655;1313;3027277;-61
2022/03/28 01:06:27;;;;;;;2.50;1.00;;;;;;;-1.60;44.08;100114.13;25213;1315;3026482;-66
2022/03/28 01:08:58;;;;;;;2.60;1.10;;;;;;;-1.61;43.74;100115.84;25123;1312;3027875;-64
2022/03/28 01:11:28;;;;;;;2.20;1.00;;;;;;;-1.70;44.16;100118.42;25136;1312;3026703;-63
2022/03/28 01:13:57;;;;;;;2.80;0.90;;;;;;;-1.62;44.27;100113.79;25155;1312;3028354;-65
2022/03/28 01:18:05;;;;;;;2.50;1.20;;;;;;;-1.57;43.82;100119.97;25114;1312;3027627;-65
2022/03/28 01:19:25;;;;;;;3.30;1.30;;;;;;;-1.63;44.34;100115.52;25157;1312;3052713;-64
2022/03/28 01:21:54;;;;;;;4.30;1.10;;;;;;;-1.62;44.04;100116.36;25142;1312;3026354;-65
2022/03/28 01:24:23;;;;;;;2.70;1.20;;;;;;;-1.71;44.30;100121.02;25089;1312;3058576;-65
2022/03/28 01:26:53;;;;;;;2.50;1.10;;;;;;;-1.67;44.39;100119.46;25145;1312;3026289;-67
2022/03/28 01:29:21;;;;;;;2.30;0.90;;;;;;;-1.65;44.78;100121.52;25047;1312;3051068;-65
2022/03/28 01:31:50;;;;;;;7.40;1.10;;;;;;;-1.60;44.49;100118.43;25134;1312;3026131;-68
2022/03/28 01:34:20;;;;;;;1.80;1.10;;;;;;;-1.67;44.74;100121.87;25150;1312;3053907;-65
2022/03/28 01:36:50;;;;;;;5.70;1.70;;;;;;;-1.68;44.79;100129.95;25126;1312;3031113;-63
2022/03/28 01:39:19;;;;;;;3.20;1.40;;;;;;;-1.71;45.21;100128.57;25128;1312;3028619;-68
2022/03/28 01:41:48;;;;;;;2.70;1.20;;;;;;;-1.63;45.06;100121.52;25149;1313;3052500;-62
2022/03/28 01:44:17;;;;;;;6.60;2.20;;;;;;;-1.65;45.44;100132.86;25120;1312;3027118;-66
2022/03/28 01:46:47;;;;;;;10.70;2.50;;;;;;;-1.68;45.69;100130.98;25169;1315;3051573;-66
2022/03/28 01:49:17;;;;;;;9.50;3.40;;;;;;;-1.65;46.12;100125.64;25116;1312;3026427;-67
2022/03/28 01:51:47;;;;;;;7.50;3.10;;;;;;;-1.72;46.80;100130.63;25218;1312;3026131;-66
2022/03/28 01:54:17;;;;;;;13.80;5.00;;;;;;;-1.76;47.46;100134.05;25149;1312;3029313;-67
2022/03/28 01:56:46;;;;;;;16.10;6.00;;;;;;;-2.03;49.01;100143.48;25173;1312;3026499;-68
2022/03/28 01:59:16;;;;;;;14.90;5.90;;;;;;;-2.27;50.30;100146.17;25182;1312;3026223;-68
2022/03/28 02:01:44;;;;;;;18.40;6.40;;;;;;;-2.10;49.16;100148.61;25131;1312;3027773;-67
2022/03/28 02:04:13;;;;;;;25.30;6.10;;;;;;;-2.11;49.54;100146.21;25221;1313;3051268;-66
2022/03/28 02:06:43;;;;;;;28.00;7.40;;;;;;;-2.16;50.18;100145.34;25196;1312;3026617;-66
2022/03/28 02:09:12;;;;;;;21.80;7.90;;;;;;;-2.33;51.22;100152.16;25156;1315;3030101;-63
2022/03/28 02:12:01;;;;;;;18.90;5.70;;;;;;;-2.32;51.20;100152.33;25112;1315;3049988;-65
2022/03/28 02:14:29;;;;;;;19.60;8.10;;;;;;;-2.52;52.44;100153.30;25217;1313;3029579;-67
2022/03/28 02:16:59;;;;;;;29.30;8.50;;;;;;;-2.68;52.84;100151.36;25159;1313;3057963;-65
2022/03/28 02:19:45;;;;;;;24.90;7.40;;;;;;;-2.60;52.38;100150.18;25108;1313;3052410;-66
2022/03/28 02:22:14;;;;;;;29.00;8.40;;;;;;;-2.69;53.07;100149.45;25127;1313;3027146;-65
2022/03/28 02:24:44;;;;;;;31.30;7.80;;;;;;;-2.92;53.58;100148.84;25143;1315;3026381;-66
2022/03/28 02:27:13;;;;;;;21.60;7.40;;;;;;;-2.96;53.74;100153.27;25133;1315;3026421;-66
2022/03/28 02:29:42;;;;;;;23.30;7.00;;;;;;;-3.03;54.13;100159.76;25138;1315;3054084;-67
2022/03/28 02:32:12;;;;;;;25.70;6.60;;;;;;;-2.93;54.10;100160.33;25159;1315;3027087;-66
2022/03/28 02:34:43;;;;;;;19.40;6.60;;;;;;;-2.93;53.54;100159.46;25106;1315;3053159;-65
2022/03/28 02:37:11;;;;;;;17.50;7.10;;;;;;;-2.88;53.10;100161.89;25157;1314;3026533;-65
2022/03/28 02:39:42;;;;;;;21.20;5.90;;;;;;;-2.84;52.49;100168.27;25103;1313;3056269;-64
2022/03/28 02:42:12;;;;;;;19.40;5.50;;;;;;;-2.86;52.72;100164.29;25154;1313;3026948;-66
2022/03/28 02:44:42;;;;;;;16.70;6.40;;;;;;;-2.84;52.39;100165.00;25123;1313;3051896;-65
2022/03/28 02:47:11;;;;;;;15.20;5.90;;;;;;;-2.75;52.26;100162.14;25148;1313;3028768;-68
2022/03/28 02:49:40;;;;;;;15.00;5.80;;;;;;;-2.75;52.64;100165.38;25059;1314;3051494;-66
2022/03/28 02:52:09;;;;;;;16.40;6.00;;;;;;;-2.76;52.25;100168.47;25166;1315;3026740;-65
2022/03/28 02:54:44;;;;;;;17.10;5.40;;;;;;;-2.76;52.10;100172.40;25142;1315;3058988;-68
2022/03/28 02:57:13;;;;;;;21.40;7.60;;;;;;;-2.77;52.22;100171.89;25103;1313;3026533;-65
2022/03/28 02:59:42;;;;;;;18.00;7.90;;;;;;;-2.72;52.13;100173.63;25063;1313;3027353;-68
2022/03/28 03:02:11;;;;;;;33.00;8.00;;;;;;;-2.67;51.80;100179.48;25140;1315;3058133;-66
2022/03/28 03:04:40;;;;;;;20.20;7.00;;;;;;;-2.77;52.17;100178.92;25091;1313;3027503;-65
2022/03/28 03:07:10;;;;;;;16.90;7.30;;;;;;;-2.82;52.09;100178.73;25147;1315;3026282;-66
2022/03/28 03:09:40;;;;;;;21.20;7.20;;;;;;;-2.76;52.04;100177.56;25157;1313;3026534;-65
2022/03/28 03:12:09;;;;;;;28.00;9.20;;;;;;;-2.81;51.36;100183.70;25036;1313;3026606;-64
2022/03/28 03:14:44;;;;;;;25.50;8.60;;;;;;;-2.73;51.10;100184.25;25098;1313;3055146;-66
2022/03/28 03:17:13;;;;;;;25.40;8.10;;;;;;;-2.77;51.71;100185.60;25174;1315;3026639;-66
2022/03/28 03:19:46;;;;;;;29.40;8.80;;;;;;;-2.80;51.91;100188.33;25135;1313;3052551;-64
2022/03/28 03:22:15;;;;;;;35.90;10.30;;;;;;;-2.76;51.54;100194.36;25154;1314;3028201;-64
2022/03/28 03:24:46;;;;;;;20.70;8.80;;;;;;;-2.73;51.13;100197.12;25158;1313;3027050;-66
2022/03/28 03:27:15;;;;;;;15.70;6.10;;;;;;;-2.64;50.90;100198.88;25104;1315;3029514;-64
2022/03/28 03:29:44;;;;;;;25.80;8.50;;;;;;;-2.68;50.78;100206.23;25152;1315;3052366;-66
2022/03/28 03:32:13;;;;;;;30.30;8.30;;;;;;;-2.58;50.62;100211.77;25124;1315;3026228;-65
2022/03/28 03:34:42;;;;;;;31.80;9.00;;;;;;;-2.58;50.88;100215.71;25128;1313;3051741;-67
2022/03/28 03:37:11;;;;;;;24.50;8.40;;;;;;;-2.51;50.07;100216.09;25151;1314;3026863;-64
2022/03/28 03:39:40;;;;;;;32.80;8.70;;;;;;;-2.48;50.19;100224.52;25152;1313;3057066;-65
2022/03/28 03:42:11;;;;;;;32.10;8.80;;;;;;;-2.44;49.98;100228.30;24781;1313;3521706;-66
2022/03/28 03:44:40;;;;;;;20.80;7.30;;;;;;;-2.46;49.69;100227.27;25090;1313;3053106;-67
2022/03/28 03:47:09;;;;;;;31.40;9.10;;;;;;;-2.49;49.30;100228.28;25131;1315;3026642;-66
2022/03/28 03:49:38;;;;;;;33.90;11.50;;;;;;;-2.54;50.74;100229.45;25167;1313;3054929;-67
2022/03/28 03:52:10;;;;;;;32.60;10.10;;;;;;;-2.50;50.68;100233.43;25183;1313;3026698;-68
2022/03/28 03:54:39;;;;;;;40.40;9.80;;;;;;;-2.55;50.78;100233.23;25117;1315;3026898;-65
2022/03/28 03:57:09;;;;;;;20.50;8.80;;;;;;;-2.42;50.23;100235.36;25130;1313;3027599;-65
2022/03/28 03:59:38;;;;;;;34.30;10.00;;;;;;;-2.28;49.90;100234.73;25147;1314;3026536;-67
2022/03/28 04:02:08;;;;;;;24.50;9.10;;;;;;;-2.29;50.09;100235.59;25179;1315;3059220;-68
2022/03/28 04:04:38;;;;;;;34.00;9.80;;;;;;;-2.36;50.10;100236.93;25015;1315;3026661;-67
2022/03/28 04:07:07;;;;;;;23.10;9.40;;;;;;;-2.38;50.21;100240.01;25128;1313;3026932;-67
2022/03/28 04:09:36;;;;;;;29.80;9.70;;;;;;;-2.34;50.08;100243.63;25176;1313;3055160;-66
2022/03/28 04:12:05;;;;;;;32.20;10.10;;;;;;;-2.27;49.52;100247.95;25097;1313;3026253;-65
2022/03/28 04:14:35;;;;;;;35.50;10.50;;;;;;;-2.30;49.25;100249.65;25134;1313;3050827;-66
2022/03/28 04:17:24;;;;;;;38.10;10.40;;;;;;;-2.18;49.15;100248.66;25155;1313;3059110;-69
2022/03/28 04:19:53;;;;;;;24.90;8.80;;;;;;;-2.24;48.95;100253.98;25094;1315;3026727;-63
2022/03/28 04:22:22;;;;;;;25.70;8.30;;;;;;;-2.18;49.17;100251.58;25178;1313;3026073;-67
2022/03/28 04:24:51;;;;;;;19.20;5.00;;;;;;;-2.20;49.65;100247.80;25105;1313;3055907;-65
2022/03/28 04:27:20;;;;;;;19.20;6.80;;;;;;;-2.16;49.19;100246.61;25126;1313;3028767;-66
2022/03/28 04:29:49;;;;;;;14.60;5.40;;;;;;;-2.18;49.50;100253.98;25119;1316;3049906;-66
2022/03/28 04:32:17;;;;;;;20.60;6.90;;;;;;;-2.15;49.64;100258.46;25101;1313;3026596;-65
2022/03/28 04:34:47;;;;;;;24.20;7.20;;;;;;;-2.31;50.00;100261.83;25116;1315;3053904;-67
2022/03/28 04:37:16;;;;;;;17.10;6.10;;;;;;;-2.19;49.53;100257.08;25135;1315;3026074;-68
2022/03/28 04:39:48;;;;;;;16.70;6.30;;;;;;;-2.11;49.24;100258.31;25118;1312;3027395;-66
2022/03/28 04:42:17;;;;;;;25.00;8.60;;;;;;;-2.10;49.56;100259.52;25165;1316;3027442;-64
2022/03/28 04:44:47;;;;;;;18.10;5.20;;;;;;;-2.16;49.94;100263.28;25104;1314;3055135;-66
2022/03/28 04:47:16;;;;;;;17.40;7.30;;;;;;;-2.11;49.98;100257.45;25181;1312;3027034;-64
2022/03/28 04:49:45;;;;;;;26.40;7.80;;;;;;;-2.14;49.62;100253.33;25194;1316;3054690;-65
2022/03/28 04:52:14;;;;;;;24.60;7.20;;;;;;;-2.15;49.48;100253.14;25110;1315;3027599;-63
2022/03/28 04:54:45;;;;;;;33.40;9.00;;;;;;;-2.22;49.48;100258.09;25192;1312;3049387;-67
2022/03/28 04:57:14;;;;;;;31.80;9.00;;;;;;;-2.03;49.24;100255.59;25094;1313;3026947;-64
2022/03/28 04:59:43;;;;;;;29.80;9.30;;;;;;;-1.90;48.91;100250.99;25102;1313;3071009;-66
2022/03/28 05:02:13;;;;;;;18.50;8.20;;;;;;;-1.94;48.01;100251.67;25255;1312;3027077;-62
2022/03/28 05:04:45;;;;;;;27.10;8.50;;;;;;;-1.91;48.19;100251.68;25557;1312;3051727;-62
2022/03/28 05:07:23;;;;;;;19.60;8.40;;;;;;;-1.77;47.15;100258.59;25598;1312;3029488;-64
2022/03/28 05:09:53;;;;;;;29.10;9.00;;;;;;;-1.65;47.13;100263.42;25283;1312;3053794;-65
2022/03/28 05:12:24;;;;;;;25.90;9.40;;;;;;;-1.57;47.24;100264.13;25104;1312;3026990;-64
2022/03/28 05:14:54;;;;;;;27.90;9.10;;;;;;;-1.55;47.31;100269.80;25123;1312;3026363;-67
2022/03/28 05:17:29;;;;;;;34.40;9.10;;;;;;;-1.42;48.11;100275.14;25114;1314;3027576;-67
2022/03/28 05:19:59;;;;;;;31.10;8.30;;;;;;;-1.21;47.74;100275.17;25091;1312;3052711;-66
2022/03/28 05:22:28;;;;;;;18.70;6.90;;;;;;;-1.15;47.17;100272.42;25124;1312;3026646;-65
2022/03/28 05:24:58;;;;;;;25.00;6.80;;;;;;;-1.04;46.95;100266.39;25134;1312;3026348;-66
2022/03/28 05:27:28;;;;;;;15.50;5.00;;;;;;;-0.98;47.06;100259.34;25090;1313;3055620;-66
2022/03/28 05:29:58;;;;;;;12.00;4.80;;;;;;;-0.92;46.33;100255.55;25136;1312;3026853;-66
2022/03/28 05:32:28;;;;;;;12.70;3.60;;;;;;;-0.86;45.90;100259.49;25185;1312;3026650;-69
2022/03/28 05:34:57;;;;;;;8.80;3.30;;;;;;;-0.78;45.20;100251.57;25135;1312;3026683;-66
2022/03/28 05:37:26;;;;;;;11.30;4.20;;;;;;;-0.65;44.81;100255.52;25175;1312;3053657;-64
2022/03/28 05:39:55;;;;;;;6.90;3.70;;;;;;;-0.62;44.38;100257.23;25104;1313;3026289;-68
2022/03/28 05:42:24;;;;;;;5.90;2.60;;;;;;;-0.50;44.11;100258.58;25152;1315;3054967;-68
2022/03/28 05:44:53;;;;;;;6.20;3.10;;;;;;;-0.32;43.88;100263.67;25184;1312;3026584;-66
2022/03/28 05:47:23;;;;;;;5.90;2.90;;;;;;;-0.24;43.71;100259.69;25092;1311;3051166;-64
2022/03/28 05:49:52;;;;;;;11.40;2.70;;;;;;;-0.27;43.58;100260.05;25189;1313;3026525;-66
2022/03/28 05:52:21;;;;;;;5.50;1.80;;;;;;;-0.22;43.71;100271.73;25137;1313;3068508;-66
2022/03/28 05:54:49;;;;;;;6.00;2.60;;;;;;;-0.08;43.53;100270.30;25133;1315;3026232;-66
2022/03/28 05:57:19;;;;;;;6.20;2.40;;;;;;;-0.05;42.90;100270.64;25153;1313;3053914;-66
2022/03/28 05:59:48;;;;;;;5.10;2.40;;;;;;;-0.02;42.82;100271.48;25110;1312;3026512;-68
2022/03/28 06:02:17;;;;;;;5.70;3.00;;;;;;;0.11;43.16;100276.77;25244;1313;3054726;-68
2022/03/28 06:04:47;;;;;;;8.90;2.80;;;;;;;0.21;43.17;100280.52;25148;1313;3026562;-65
2022/03/28 06:07:17;;;;;;;7.00;2.50;;;;;;;0.36;42.90;100279.56;25149;1313;3026296;-67
2022/03/28 06:09:58;;;;;;;6.20;2.30;;;;;;;0.43;42.18;100283.84;25151;1313;3055538;-65
2022/03/28 06:12:27;;;;;;;9.30;2.50;;;;;;;0.47;41.72;100287.25;25111;1316;3026542;-64
2022/03/28 06:14:56;;;;;;;9.20;2.90;;;;;;;0.54;41.33;100283.24;25194;1315;3050309;-65
2022/03/28 06:17:46;;;;;;;5.00;2.50;;;;;;;0.61;41.21;100292.50;25150;1318;3055559;-63
2022/03/28 06:20:15;;;;;;;7.40;2.20;;;;;;;0.45;40.95;100292.61;25266;1315;3026332;-64
2022/03/28 06:22:47;;;;;;;3.40;1.80;;;;;;;0.51;41.41;100299.48;25098;1315;3026786;-63
2022/03/28 06:25:17;;;;;;;4.20;1.70;;;;;;;0.55;41.54;100292.89;25111;1318;3027249;-64
2022/03/28 06:27:46;;;;;;;6.40;1.90;;;;;;;0.57;41.83;100287.88;25147;1315;3026940;-62
2022/03/28 06:30:15;;;;;;;6.80;2.30;;;;;;;0.71;41.66;100293.65;25045;1315;3070881;-64
2022/03/28 06:32:45;;;;;;;9.50;2.60;;;;;;;0.70;41.69;100297.98;25149;1315;3026468;-64
2022/03/28 06:35:13;;;;;;;4.10;1.40;;;;;;;0.71;41.70;100314.35;25165;1315;3050789;-64
2022/03/28 06:37:43;;;;;;;4.30;2.00;;;;;;;0.76;41.48;100302.41;25197;1315;3027223;-64
2022/03/28 06:40:12;;;;;;;8.90;1.90;;;;;;;0.83;41.44;100294.59;25066;1315;3026545;-65
2022/03/28 06:42:41;;;;;;;3.80;2.20;;;;;;;0.87;41.91;100283.18;25100;1313;3053505;-63
2022/03/28 06:45:11;;;;;;;5.20;1.90;;;;;;;1.00;41.83;100282.91;25072;1315;3026494;-63
2022/03/28 06:47:41;;;;;;;5.80;1.80;;;;;;;1.00;41.88;100286.36;25090;1315;3054722;-64
2022/03/28 06:50:10;;;;;;;11.60;2.90;;;;;;;1.08;41.14;100280.09;25052;1315;3027074;-63
2022/03/28 06:52:41;;;;;;;7.10;2.60;;;;;;;1.19;40.89;100286.89;25139;1315;3049253;-63
2022/03/28 06:55:10;;;;;;;9.50;2.90;;;;;;;1.23;40.74;100282.88;25131;1313;3028822;-63
2022/03/28 06:57:40;;;;;;;5.20;2.20;;;;;;;1.28;40.38;100278.34;25058;1318;3058305;-64
2022/03/28 07:00:17;;;;;;;2.50;1.70;;;;;;;1.44;40.21;100291.48;25138;1315;3026180;-65
2022/03/28 07:02:49;;;;;;;4.30;1.70;;;;;;;1.57;39.31;100305.70;25146;1314;3056006;-65
2022/03/28 07:05:17;;;;;;;2.50;1.40;;;;;;;1.57;38.53;100286.86;25184;1313;3028538;-64
2022/03/28 07:07:48;;;;;;;3.30;1.40;;;;;;;1.78;38.07;100277.13;25138;1315;3027297;-61
2022/03/28 07:10:21;;;;;;;5.20;1.90;;;;;;;1.83;37.62;100279.33;25060;1313;3026888;-64
2022/03/28 07:12:54;;;;;;;3.40;1.70;;;;;;;1.98;37.01;100279.14;25181;1313;3026386;-65
2022/03/28 07:15:43;;;;;;;5.90;1.70;;;;;;;1.85;35.13;100288.45;25147;1313;3050531;-67
2022/03/28 07:18:12;;;;;;;3.50;2.00;;;;;;;1.92;34.74;100283.70;25152;1315;3027684;-65
2022/03/28 07:20:43;;;;;;;8.40;1.40;;;;;;;1.97;34.18;100282.95;25092;1313;3054376;-62
2022/03/28 07:23:13;;;;;;;7.20;2.30;;;;;;;2.11;33.84;100280.88;25112;1315;3027326;-64
2022/03/28 07:25:45;;;;;;;4.00;1.40;;;;;;;2.15;33.17;100262.50;25094;1315;3029909;-67
2022/03/28 07:28:14;;;;;;;4.40;1.70;;;;;;;2.23;32.85;100257.39;25159;1314;3026578;-64
2022/03/28 07:30:44;;;;;;;4.00;1.70;;;;;;;2.50;32.87;100241.27;25123;1313;3026169;-64
2022/03/28 07:33:14;;;;;;;5.80;2.40;;;;;;;2.77;32.04;100234.61;25071;1315;3026567;-65
2022/03/28 07:35:45;;;;;;;12.60;2.20;;;;;;;2.83;31.30;100247.33;25150;1315;3026448;-63
2022/03/28 07:38:22;;;;;;;8.70;1.30;;;;;;;2.94;31.23;100258.73;25106;1315;3055681;-64
2022/03/28 07:41:15;;;;;;;6.20;1.40;;;;;;;2.79;31.36;100253.62;24979;1316;3052224;-63
2022/03/28 07:43:45;;;;;;;4.50;1.70;;;;;;;2.93;30.97;100243.01;25111;1315;3026452;-63
2022/03/28 07:46:14;;;;;;;3.70;1.70;;;;;;;3.06;29.94;100235.16;25053;1315;3026989;-64
2022/03/28 07:48:44;;;;;;;5.20;1.70;;;;;;;3.01;29.66;100237.16;25152;1315;3051452;-64
2022/03/28 07:51:13;;;;;;;3.60;1.10;;;;;;;3.17;29.25;100233.42;25143;1315;3027822;-64
2022/03/28 07:53:42;;;;;;;3.60;1.20;;;;;;;3.15;28.80;100243.66;25124;1318;3026507;-63
2022/03/28 07:56:11;;;;;;;6.60;1.50;;;;;;;3.20;28.40;100233.36;25068;1315;3052723;-64
2022/03/28 07:58:42;;;;;;;3.90;1.30;;;;;;;3.31;27.86;100232.99;25110;1316;3026500;-65
2022/03/28 08:01:12;;;;;;;6.50;1.80;;;;;;;3.45;28.04;100227.34;25036;1315;3026394;-66
2022/03/28 08:03:41;;;;;;;2.40;1.10;;;;;;;3.61;27.87;100212.14;25186;1313;3029303;-64
2022/03/28 08:06:11;;;;;;;2.00;1.10;;;;;;;3.61;28.21;100223.93;25088;1317;3027291;-66
2022/03/28 08:08:42;;;;;;;8.10;1.80;;;;;;;3.62;27.84;100221.84;25134;1315;3026265;-64
2022/03/28 08:11:31;;;;;;;12.00;3.10;;;;;;;3.58;28.32;100213.40;25052;1313;3053071;-63
2022/03/28 08:14:03;;;;;;;6.00;2.00;;;;;;;3.72;28.14;100210.19;25056;1315;3026557;-64
2022/03/28 08:16:35;;;;;;;2.70;1.50;;;;;;;3.81;28.21;100216.59;25072;1318;3057702;-65
2022/03/28 08:19:04;;;;;;;6.40;1.50;;;;;;;3.76;27.96;100200.57;25175;1316;3030014;-65
2022/03/28 08:21:34;;;;;;;5.80;1.80;;;;;;;3.82;27.98;100189.89;25115;1315;3051871;-64
2022/03/28 08:24:05;;;;;;;5.00;1.40;;;;;;;3.90;28.15;100195.09;25126;1314;3026750;-66
2022/03/28 08:26:34;;;;;;;8.00;1.80;;;;;;;3.94;27.76;100200.55;25142;1315;3026532;-64
2022/03/28 08:29:06;;;;;;;14.50;1.90;;;;;;;3.81;27.89;100182.96;25173;1314;3026660;-64
2022/03/28 08:31:35;;;;;;;7.80;1.80;;;;;;;4.13;28.32;100184.53;25051;1315;3026670;-63
2022/03/28 08:34:04;;;;;;;4.20;1.90;;;;;;;4.21;27.92;100178.63;25147;1314;3026891;-64
2022/03/28 08:36:34;;;;;;;14.40;2.60;;;;;;;4.24;27.98;100167.98;25143;1315;3054981;-63
2022/03/28 08:39:06;;;;;;;6.90;2.30;;;;;;;4.30;28.07;100181.36;25053;1314;3026513;-63
2022/03/28 08:41:35;;;;;;;8.50;2.70;;;;;;;4.25;28.01;100166.73;25106;1315;3026194;-66
2022/03/28 08:44:05;;;;;;;6.10;2.00;;;;;;;4.31;28.16;100171.27;25112;1315;3026780;-64
2022/03/28 08:46:34;;;;;;;5.50;2.60;;;;;;;4.33;28.32;100172.64;25053;1315;3026713;-65
2022/03/28 08:49:05;;;;;;;7.30;3.10;;;;;;;4.36;28.22;100167.02;25086;1318;3069255;-65
2022/03/28 08:51:34;;;;;;;3.50;1.90;;;;;;;4.48;28.40;100161.00;25069;1317;3026151;-63
2022/03/28 08:54:03;;;;;;;7.60;2.20;;;;;;;4.59;28.37;100154.48;25090;1315;3026461;-64
2022/03/28 08:56:32;;;;;;;7.70;2.60;;;;;;;4.70;28.29;100168.61;25084;1315;3069416;-64
2022/03/28 08:59:03;;;;;;;12.20;2.80;;;;;;;4.68;27.45;100152.34;25126;1315;3026783;-65
2022/03/28 09:01:32;;;;;;;3.90;1.20;;;;;;;4.64;27.57;100162.33;25103;1315;3050304;-65
2022/03/28 09:04:09;;;;;;;4.70;2.10;;;;;;;4.71;26.90;100159.04;25091;1318;3026687;-64
2022/03/28 09:06:39;;;;;;;7.20;1.90;;;;;;;4.67;26.95;100149.58;25168;1315;3051528;-63
2022/03/28 09:09:29;;;;;;;8.30;1.80;;;;;;;4.71;27.51;100155.02;25139;1315;3052462;-61
2022/03/28 09:12:08;;;;;;;6.10;2.30;;;;;;;5.07;27.43;100139.52;25280;1315;3026434;-63
2022/03/28 09:14:37;;;;;;;7.40;1.60;;;;;;;5.23;26.83;100147.43;25141;1315;3056199;-63
2022/03/28 09:17:11;;;;;;;6.10;1.70;;;;;;;5.20;26.24;100134.30;25171;1315;3026723;-62
2022/03/28 09:20:02;;;;;;;5.70;1.50;;;;;;;5.11;26.04;100130.55;25036;1317;3054923;-64
2022/03/28 09:22:34;;;;;;;8.90;1.80;;;;;;;5.23;26.22;100116.16;25125;1315;3025977;-63
2022/03/28 09:25:07;;;;;;;2.10;1.10;;;;;;;5.32;26.26;100143.35;25128;1312;3026132;-64
2022/03/28 09:27:39;;;;;;;3.90;1.50;;;;;;;5.18;26.01;100128.45;25190;1312;3026832;-65
2022/03/28 09:30:19;;;;;;;5.60;2.20;;;;;;;5.00;26.39;100118.02;25162;1312;3029968;-64
2022/03/28 09:32:52;;;;;;;4.50;1.70;;;;;;;5.25;26.70;100109.66;25139;1312;3071100;-65
2022/03/28 09:35:23;;;;;;;4.70;2.10;;;;;;;5.43;26.38;100108.82;25125;1312;3026785;-63
2022/03/28 09:38:02;;;;;;;3.60;2.00;;;;;;;5.54;26.50;100107.30;25135;1312;3026688;-64
2022/03/28 09:40:38;;;;;;;3.40;2.10;;;;;;;5.49;26.36;100116.79;25089;1315;3051585;-65
2022/03/28 09:43:24;;;;;;;5.30;2.80;;;;;;;5.38;26.54;100121.63;25108;1312;3058719;-62
2022/03/28 09:45:55;;;;;;;7.70;2.50;;;;;;;5.39;26.52;100097.30;25068;1312;3049998;-65
2022/03/28 09:48:26;;;;;;;11.40;2.50;;;;;;;5.53;26.60;100082.45;25104;1312;3026425;-66
2022/03/28 09:51:05;;;;;;;4.40;2.10;;;;;;;5.59;26.53;100102.08;25136;1315;3026297;-64
2022/03/28 09:53:41;;;;;;;4.10;1.80;;;;;;;5.70;26.26;100074.48;25121;1312;3071336;-64
2022/03/28 09:56:11;;;;;;;7.20;2.20;;;;;;;5.72;26.28;100067.29;25090;1313;3049705;-63
2022/03/28 09:58:47;;;;;;;7.30;2.50;;;;;;;5.79;26.08;100068.63;25056;1313;3029624;-64
2022/03/28 10:01:31;;;;;;;6.70;1.90;;;;;;;5.94;25.61;100071.28;25157;1313;3050361;-64
2022/03/28 10:04:05;;;;;;;5.30;1.80;;;;;;;6.15;25.54;100064.57;25127;1312;3058836;-66
2022/03/28 10:06:35;;;;;;;4.80;2.50;;;;;;;6.11;25.71;100058.95;25110;1312;3052028;-68
2022/03/28 10:09:05;;;;;;;8.70;2.10;;;;;;;6.15;25.76;100067.86;25126;1312;3026502;-66
2022/03/28 10:11:36;;;;;;;7.60;2.30;;;;;;;6.21;25.62;100054.98;25123;1312;3026966;-66
2022/03/28 10:14:05;;;;;;;4.20;2.20;;;;;;;6.26;25.54;100058.80;25095;1312;3028642;-62
2022/03/28 10:16:34;;;;;;;5.00;2.10;;;;;;;6.16;25.62;100047.13;25107;1312;3027246;-59
2022/03/28 10:19:05;;;;;;;7.70;1.80;;;;;;;6.33;25.33;100048.15;25052;1313;3053245;-66
2022/03/28 10:21:36;;;;;;;6.10;1.80;;;;;;;6.15;25.31;100049.61;25094;1312;3029899;-65
2022/03/28 10:24:11;;;;;;;3.60;1.50;;;;;;;6.25;25.66;100059.02;25169;1313;3028436;-65
2022/03/28 10:26:45;;;;;;;4.00;1.30;;;;;;;6.44;25.46;100058.36;25131;1315;3052681;-65
2022/03/28 10:29:19;;;;;;;3.70;1.60;;;;;;;6.30;25.46;100039.53;25086;1315;3053700;-61
2022/03/28 10:31:52;;;;;;;6.40;1.90;;;;;;;6.08;25.55;100042.00;25128;1313;3057330;-62
2022/03/28 10:34:56;;;;;;;3.10;1.20;;;;;;;6.25;25.83;100021.09;25050;1314;3026561;-63
2022/03/28 10:37:33;;;;;;;4.80;1.70;;;;;;;6.69;25.55;100020.44;25056;1315;3052635;-64
2022/03/28 10:40:19;;;;;;;5.60;1.70;;;;;;;6.70;25.56;100017.77;25103;1313;3051234;-65
2022/03/28 10:42:51;;;;;;;13.50;2.50;;;;;;;6.76;25.62;100001.39;25067;1313;3069344;-65
2022/03/28 10:45:21;;;;;;;6.80;1.60;;;;;;;6.88;25.49;100000.58;25066;1315;3027311;-64
2022/03/28 10:47:52;;;;;;;7.90;1.90;;;;;;;7.00;25.72;99993.01;25101;1315;3026465;-63
2022/03/28 10:50:32;;;;;;;5.50;1.70;;;;;;;7.04;25.30;99988.52;25093;1312;3026730;-64
2022/03/28 10:53:07;;;;;;;7.30;1.60;;;;;;;7.07;25.40;99998.16;25054;1314;3058905;-65
2022/03/28 10:55:42;;;;;;;4.30;1.30;;;;;;;7.12;25.28;99980.02;25027;1313;3052315;-62
2022/03/28 10:58:15;;;;;;;6.60;1.30;;;;;;;7.06;25.04;99984.96;25108;1315;3055959;-63
2022/03/28 11:01:13;;;;;;;3.50;1.90;;;;;;;7.20;25.18;99968.72;25104;1313;3026910;-64
2022/03/28 11:03:43;;;;;;;6.80;1.80;;;;;;;7.29;25.01;99988.45;25036;1315;3071211;-63
2022/03/28 11:06:13;;;;;;;4.00;1.40;;;;;;;7.35;24.93;99969.91;25046;1314;3026428;-63
2022/03/28 11:09:00;;;;;;;6.30;1.50;;;;;;;7.35;24.99;99980.02;25070;1313;3054580;-61
2022/03/28 11:11:32;;;;;;;5.60;1.30;;;;;;;7.51;25.35;99958.63;25083;1315;3051712;-63
2022/03/28 11:14:03;;;;;;;6.20;1.40;;;;;;;7.71;24.98;99941.45;25070;1313;3026451;-64
2022/03/28 11:16:53;;;;;;;7.20;1.40;;;;;;;7.68;24.79;99951.87;25051;1315;3049921;-63
2022/03/28 11:19:33;;;;;;;5.40;1.40;;;;;;;7.81;24.85;99935.29;25087;1313;3026289;-62
2022/03/28 11:22:10;;;;;;;5.10;1.20;;;;;;;8.07;24.67;99917.97;25065;1315;3053180;-64
2022/03/28 11:24:59;;;;;;;5.40;1.20;;;;;;;8.04;24.66;99919.50;25077;1312;3068818;-64
2022/03/28 11:27:34;;;;;;;3.60;1.40;;;;;;;7.91;24.82;99923.35;25108;1313;3026384;-63
2022/03/28 11:30:13;;;;;;;10.50;1.60;;;;;;;8.06;24.74;99918.51;25089;1312;3053801;-64